sensor_id;sensor_type;location;lat;lon;timestamp;P1;durP1;ratioP1;P2;durP2;ratioP2
28920;SDS011;16035;53.594;9.952;2022-07-05T00:00:40;2.57;;;0.90;;
28920;SDS011;16035;53.594;9.952;2022-07-05T00:02:41;3.47;;;0.95;;
28920;SDS011;16035;53.594;9.952;2022-07-05T00:04:42;4.87;;;0.70;;
28920;SDS011;16035;53.594;9.952;2022-07-05T00:06:42;4.15;;;0.80;;
28920;SDS011;16035;53.594;9.952;2022-07-05T00:09:01;0.85;;;0.57;;
28920;SDS011;16035;53.594;9.952;2022-07-05T00:11:02;1.42;;;0.60;;
28920;SDS011;16035;53.594;9.952;2022-07-05T00:13:03;0.70;;;0.60;;
28920;SDS011;16035;53.594;9.952;2022-07-05T00:15:05;1.60;;;0.77;;
28920;SDS011;16035;53.594;9.952;2022-07-05T00:17:06;2.55;;;0.73;;
28920;SDS011;16035;53.594;9.952;2022-07-05T00:19:06;1.27;;;1.00;;
28920;SDS011;16035;53.594;9.952;2022-07-05T00:21:07;1.33;;;0.93;;
28920;SDS011;16035;53.594;9.952;2022-07-05T00:23:07;3.20;;;0.77;;
28920;SDS011;16035;53.594;9.952;2022-07-05T00:25:08;3.43;;;0.60;;
28920;SDS011;16035;53.594;9.952;2022-07-05T00:27:09;3.38;;;0.50;;
28920;SDS011;16035;53.594;9.952;2022-07-05T00:29:09;1.53;;;0.70;;
28920;SDS011;16035;53.594;9.952;2022-07-05T00:31:09;1.70;;;1.17;;
28920;SDS011;16035;53.594;9.952;2022-07-05T00:33:10;2.80;;;0.90;;
28920;SDS011;16035;53.594;9.952;2022-07-05T00:35:10;2.03;;;0.70;;
28920;SDS011;16035;53.594;9.952;2022-07-05T00:37:11;1.80;;;0.70;;
28920;SDS011;16035;53.594;9.952;2022-07-05T00:39:12;2.10;;;0.60;;
28920;SDS011;16035;53.594;9.952;2022-07-05T00:41:12;3.08;;;0.50;;
28920;SDS011;16035;53.594;9.952;2022-07-05T00:43:13;3.03;;;0.90;;
28920;SDS011;16035;53.594;9.952;2022-07-05T00:45:13;5.27;;;0.63;;
28920;SDS011;16035;53.594;9.952;2022-07-05T00:47:14;0.70;;;0.50;;
28920;SDS011;16035;53.594;9.952;2022-07-05T00:49:14;1.47;;;0.87;;
28920;SDS011;16035;53.594;9.952;2022-07-05T00:51:14;3.63;;;0.70;;
28920;SDS011;16035;53.594;9.952;2022-07-05T00:53:15;0.93;;;0.60;;
28920;SDS011;16035;53.594;9.952;2022-07-05T00:55:15;1.13;;;0.60;;
28920;SDS011;16035;53.594;9.952;2022-07-05T00:57:16;0.80;;;0.53;;
28920;SDS011;16035;53.594;9.952;2022-07-05T00:59:19;1.95;;;0.88;;
28920;SDS011;16035;53.594;9.952;2022-07-05T01:01:19;1.03;;;0.80;;
28920;SDS011;16035;53.594;9.952;2022-07-05T01:03:20;2.83;;;0.90;;
28920;SDS011;16035;53.594;9.952;2022-07-05T01:05:21;1.80;;;0.70;;
28920;SDS011;16035;53.594;9.952;2022-07-05T01:07:22;2.90;;;0.80;;
28920;SDS011;16035;53.594;9.952;2022-07-05T01:09:23;1.85;;;0.70;;
28920;SDS011;16035;53.594;9.952;2022-07-05T01:11:24;2.73;;;1.07;;
28920;SDS011;16035;53.594;9.952;2022-07-05T01:13:25;5.40;;;0.90;;
28920;SDS011;16035;53.594;9.952;2022-07-05T01:15:25;1.38;;;0.77;;
28920;SDS011;16035;53.594;9.952;2022-07-05T01:17:27;4.13;;;0.85;;
28920;SDS011;16035;53.594;9.952;2022-07-05T01:19:27;2.88;;;1.25;;
28920;SDS011;16035;53.594;9.952;2022-07-05T01:21:28;0.97;;;0.60;;
28920;SDS011;16035;53.594;9.952;2022-07-05T01:23:31;2.38;;;0.90;;
28920;SDS011;16035;53.594;9.952;2022-07-05T01:25:32;4.05;;;0.73;;
28920;SDS011;16035;53.594;9.952;2022-07-05T01:27:33;4.33;;;1.03;;
28920;SDS011;16035;53.594;9.952;2022-07-05T01:29:33;4.03;;;0.53;;
28920;SDS011;16035;53.594;9.952;2022-07-05T01:31:37;2.83;;;0.87;;
28920;SDS011;16035;53.594;9.952;2022-07-05T01:33:39;4.25;;;0.98;;
28920;SDS011;16035;53.594;9.952;2022-07-05T01:35:39;2.53;;;0.87;;
28920;SDS011;16035;53.594;9.952;2022-07-05T01:37:40;1.83;;;1.00;;
28920;SDS011;16035;53.594;9.952;2022-07-05T01:39:40;1.23;;;0.87;;
28920;SDS011;16035;53.594;9.952;2022-07-05T01:41:40;2.57;;;1.03;;
28920;SDS011;16035;53.594;9.952;2022-07-05T01:43:41;1.67;;;0.97;;
28920;SDS011;16035;53.594;9.952;2022-07-05T01:45:42;3.13;;;1.00;;
28920;SDS011;16035;53.594;9.952;2022-07-05T01:47:45;1.42;;;0.65;;
28920;SDS011;16035;53.594;9.952;2022-07-05T01:49:46;2.05;;;0.75;;
28920;SDS011;16035;53.594;9.952;2022-07-05T01:51:57;3.33;;;0.95;;
28920;SDS011;16035;53.594;9.952;2022-07-05T01:54:01;2.55;;;1.10;;
28920;SDS011;16035;53.594;9.952;2022-07-05T01:56:02;4.80;;;1.20;;
28920;SDS011;16035;53.594;9.952;2022-07-05T01:58:03;1.90;;;1.05;;
28920;SDS011;16035;53.594;9.952;2022-07-05T02:00:04;2.13;;;1.00;;
28920;SDS011;16035;53.594;9.952;2022-07-05T02:02:05;2.25;;;0.80;;
28920;SDS011;16035;53.594;9.952;2022-07-05T02:04:08;2.80;;;1.05;;
28920;SDS011;16035;53.594;9.952;2022-07-05T02:06:09;2.10;;;0.90;;
28920;SDS011;16035;53.594;9.952;2022-07-05T02:08:11;3.80;;;1.25;;
28920;SDS011;16035;53.594;9.952;2022-07-05T02:10:13;2.70;;;1.05;;
28920;SDS011;16035;53.594;9.952;2022-07-05T02:12:13;1.00;;;0.75;;
28920;SDS011;16035;53.594;9.952;2022-07-05T02:14:14;1.13;;;0.73;;
28920;SDS011;16035;53.594;9.952;2022-07-05T02:16:14;3.03;;;0.90;;
28920;SDS011;16035;53.594;9.952;2022-07-05T02:18:15;2.30;;;1.00;;
28920;SDS011;16035;53.594;9.952;2022-07-05T02:20:15;3.67;;;0.90;;
28920;SDS011;16035;53.594;9.952;2022-07-05T02:22:15;5.83;;;1.07;;
28920;SDS011;16035;53.594;9.952;2022-07-05T02:24:16;6.60;;;1.27;;
28920;SDS011;16035;53.594;9.952;2022-07-05T02:26:16;2.10;;;1.17;;
28920;SDS011;16035;53.594;9.952;2022-07-05T02:28:17;6.07;;;1.10;;
28920;SDS011;16035;53.594;9.952;2022-07-05T02:30:17;1.50;;;1.17;;
28920;SDS011;16035;53.594;9.952;2022-07-05T02:32:18;1.95;;;0.93;;
28920;SDS011;16035;53.594;9.952;2022-07-05T02:34:19;3.50;;;1.03;;
28920;SDS011;16035;53.594;9.952;2022-07-05T02:36:19;3.00;;;1.00;;
28920;SDS011;16035;53.594;9.952;2022-07-05T02:38:19;3.33;;;0.90;;
28920;SDS011;16035;53.594;9.952;2022-07-05T02:40:20;3.23;;;1.10;;
28920;SDS011;16035;53.594;9.952;2022-07-05T02:42:20;3.13;;;1.17;;
28920;SDS011;16035;53.594;9.952;2022-07-05T02:44:21;1.07;;;0.97;;
28920;SDS011;16035;53.594;9.952;2022-07-05T02:46:21;2.27;;;0.80;;
28920;SDS011;16035;53.594;9.952;2022-07-05T02:48:21;2.00;;;0.80;;
28920;SDS011;16035;53.594;9.952;2022-07-05T02:50:21;3.57;;;1.17;;
28920;SDS011;16035;53.594;9.952;2022-07-05T02:52:22;2.03;;;1.03;;
28920;SDS011;16035;53.594;9.952;2022-07-05T02:54:22;1.97;;;0.93;;
28920;SDS011;16035;53.594;9.952;2022-07-05T02:56:23;1.87;;;1.00;;
28920;SDS011;16035;53.594;9.952;2022-07-05T02:58:23;3.40;;;0.90;;
28920;SDS011;16035;53.594;9.952;2022-07-05T03:00:23;2.00;;;1.27;;
28920;SDS011;16035;53.594;9.952;2022-07-05T03:02:24;2.17;;;0.90;;
28920;SDS011;16035;53.594;9.952;2022-07-05T03:04:24;1.67;;;1.07;;
28920;SDS011;16035;53.594;9.952;2022-07-05T03:06:25;2.47;;;1.30;;
28920;SDS011;16035;53.594;9.952;2022-07-05T03:08:25;2.03;;;1.27;;
28920;SDS011;16035;53.594;9.952;2022-07-05T03:10:25;2.53;;;1.13;;
28920;SDS011;16035;53.594;9.952;2022-07-05T03:12:26;1.87;;;1.10;;
28920;SDS011;16035;53.594;9.952;2022-07-05T03:14:26;4.90;;;1.23;;
28920;SDS011;16035;53.594;9.952;2022-07-05T03:16:26;2.80;;;1.10;;
28920;SDS011;16035;53.594;9.952;2022-07-05T03:18:27;3.13;;;1.00;;
28920;SDS011;16035;53.594;9.952;2022-07-05T03:20:27;2.13;;;1.20;;
28920;SDS011;16035;53.594;9.952;2022-07-05T03:22:28;2.70;;;1.43;;
28920;SDS011;16035;53.594;9.952;2022-07-05T03:24:28;2.17;;;1.10;;
28920;SDS011;16035;53.594;9.952;2022-07-05T03:26:28;2.67;;;1.20;;
28920;SDS011;16035;53.594;9.952;2022-07-05T03:28:29;2.20;;;1.20;;
28920;SDS011;16035;53.594;9.952;2022-07-05T03:30:29;2.87;;;1.20;;
28920;SDS011;16035;53.594;9.952;2022-07-05T03:32:30;3.17;;;1.50;;
28920;SDS011;16035;53.594;9.952;2022-07-05T03:34:30;2.43;;;1.37;;
28920;SDS011;16035;53.594;9.952;2022-07-05T03:36:30;2.00;;;1.27;;
28920;SDS011;16035;53.594;9.952;2022-07-05T03:38:31;3.53;;;1.43;;
28920;SDS011;16035;53.594;9.952;2022-07-05T03:40:31;3.90;;;1.53;;
28920;SDS011;16035;53.594;9.952;2022-07-05T03:42:32;1.70;;;1.10;;
28920;SDS011;16035;53.594;9.952;2022-07-05T03:44:32;3.07;;;1.20;;
28920;SDS011;16035;53.594;9.952;2022-07-05T03:46:33;3.23;;;1.40;;
28920;SDS011;16035;53.594;9.952;2022-07-05T03:48:33;1.87;;;1.30;;
28920;SDS011;16035;53.594;9.952;2022-07-05T03:50:34;5.30;;;2.27;;
28920;SDS011;16035;53.594;9.952;2022-07-05T03:52:34;3.77;;;1.43;;
28920;SDS011;16035;53.594;9.952;2022-07-05T03:54:34;4.33;;;1.47;;
28920;SDS011;16035;53.594;9.952;2022-07-05T03:56:35;6.93;;;1.60;;
28920;SDS011;16035;53.594;9.952;2022-07-05T03:58:35;1.83;;;1.50;;
28920;SDS011;16035;53.594;9.952;2022-07-05T04:00:35;2.63;;;1.37;;
28920;SDS011;16035;53.594;9.952;2022-07-05T04:02:36;1.17;;;1.07;;
28920;SDS011;16035;53.594;9.952;2022-07-05T04:04:36;3.87;;;1.73;;
28920;SDS011;16035;53.594;9.952;2022-07-05T04:06:36;4.13;;;1.33;;
28920;SDS011;16035;53.594;9.952;2022-07-05T04:08:37;3.40;;;1.30;;
28920;SDS011;16035;53.594;9.952;2022-07-05T04:10:37;2.20;;;1.50;;
28920;SDS011;16035;53.594;9.952;2022-07-05T04:12:37;6.77;;;1.57;;
28920;SDS011;16035;53.594;9.952;2022-07-05T04:14:38;4.20;;;1.40;;
28920;SDS011;16035;53.594;9.952;2022-07-05T04:16:38;3.73;;;1.50;;
28920;SDS011;16035;53.594;9.952;2022-07-05T04:18:38;3.00;;;1.20;;
28920;SDS011;16035;53.594;9.952;2022-07-05T04:20:39;3.17;;;1.40;;
28920;SDS011;16035;53.594;9.952;2022-07-05T04:22:39;3.33;;;1.67;;
28920;SDS011;16035;53.594;9.952;2022-07-05T04:24:40;2.63;;;1.50;;
28920;SDS011;16035;53.594;9.952;2022-07-05T04:27:06;2.55;;;1.70;;
28920;SDS011;16035;53.594;9.952;2022-07-05T04:29:06;4.23;;;1.50;;
28920;SDS011;16035;53.594;9.952;2022-07-05T04:31:07;2.23;;;1.40;;
28920;SDS011;16035;53.594;9.952;2022-07-05T04:33:08;5.53;;;1.83;;
28920;SDS011;16035;53.594;9.952;2022-07-05T04:35:08;5.40;;;1.47;;
28920;SDS011;16035;53.594;9.952;2022-07-05T04:37:09;3.00;;;1.40;;
28920;SDS011;16035;53.594;9.952;2022-07-05T04:39:10;6.87;;;1.63;;
28920;SDS011;16035;53.594;9.952;2022-07-05T04:41:10;5.10;;;1.60;;
28920;SDS011;16035;53.594;9.952;2022-07-05T04:43:10;5.40;;;1.80;;
28920;SDS011;16035;53.594;9.952;2022-07-05T04:45:11;4.43;;;1.60;;
28920;SDS011;16035;53.594;9.952;2022-07-05T04:47:12;1.87;;;1.63;;
28920;SDS011;16035;53.594;9.952;2022-07-05T04:49:12;2.77;;;1.43;;
28920;SDS011;16035;53.594;9.952;2022-07-05T04:51:12;5.10;;;1.30;;
28920;SDS011;16035;53.594;9.952;2022-07-05T04:53:13;1.43;;;1.33;;
28920;SDS011;16035;53.594;9.952;2022-07-05T04:55:13;5.07;;;1.73;;
28920;SDS011;16035;53.594;9.952;2022-07-05T04:57:14;2.97;;;1.30;;
28920;SDS011;16035;53.594;9.952;2022-07-05T04:59:14;2.50;;;1.30;;
28920;SDS011;16035;53.594;9.952;2022-07-05T05:01:14;1.97;;;1.17;;
28920;SDS011;16035;53.594;9.952;2022-07-05T05:03:15;4.67;;;1.60;;
28920;SDS011;16035;53.594;9.952;2022-07-05T05:05:15;1.57;;;1.10;;
28920;SDS011;16035;53.594;9.952;2022-07-05T05:07:15;1.20;;;1.03;;
28920;SDS011;16035;53.594;9.952;2022-07-05T05:09:16;3.50;;;1.40;;
28920;SDS011;16035;53.594;9.952;2022-07-05T05:11:16;3.20;;;1.03;;
28920;SDS011;16035;53.594;9.952;2022-07-05T05:13:17;2.03;;;1.33;;
28920;SDS011;16035;53.594;9.952;2022-07-05T05:15:17;1.87;;;1.13;;
28920;SDS011;16035;53.594;9.952;2022-07-05T05:17:17;2.33;;;0.60;;
28920;SDS011;16035;53.594;9.952;2022-07-05T05:19:18;1.23;;;0.97;;
28920;SDS011;16035;53.594;9.952;2022-07-05T05:21:18;3.13;;;1.00;;
28920;SDS011;16035;53.594;9.952;2022-07-05T05:23:19;1.63;;;1.00;;
28920;SDS011;16035;53.594;9.952;2022-07-05T05:25:19;2.20;;;1.00;;
28920;SDS011;16035;53.594;9.952;2022-07-05T05:27:19;5.70;;;1.00;;
28920;SDS011;16035;53.594;9.952;2022-07-05T05:29:20;5.20;;;1.00;;
28920;SDS011;16035;53.594;9.952;2022-07-05T05:31:23;1.80;;;1.08;;
28920;SDS011;16035;53.594;9.952;2022-07-05T05:33:23;1.57;;;1.00;;
28920;SDS011;16035;53.594;9.952;2022-07-05T05:35:24;1.77;;;0.90;;
28920;SDS011;16035;53.594;9.952;2022-07-05T05:37:24;3.60;;;1.30;;
28920;SDS011;16035;53.594;9.952;2022-07-05T05:39:24;1.23;;;0.80;;
28920;SDS011;16035;53.594;9.952;2022-07-05T05:41:25;3.00;;;1.03;;
28920;SDS011;16035;53.594;9.952;2022-07-05T05:43:25;3.80;;;1.07;;
28920;SDS011;16035;53.594;9.952;2022-07-05T05:45:25;4.13;;;1.10;;
28920;SDS011;16035;53.594;9.952;2022-07-05T05:47:26;2.10;;;0.70;;
28920;SDS011;16035;53.594;9.952;2022-07-05T05:49:26;2.23;;;1.00;;
28920;SDS011;16035;53.594;9.952;2022-07-05T05:51:27;2.00;;;0.80;;
28920;SDS011;16035;53.594;9.952;2022-07-05T05:53:27;2.20;;;0.70;;
28920;SDS011;16035;53.594;9.952;2022-07-05T05:55:28;4.27;;;1.03;;
28920;SDS011;16035;53.594;9.952;2022-07-05T05:57:30;5.30;;;0.95;;
28920;SDS011;16035;53.594;9.952;2022-07-05T05:59:30;3.37;;;0.90;;
28920;SDS011;16035;53.594;9.952;2022-07-05T06:01:30;3.77;;;1.07;;
28920;SDS011;16035;53.594;9.952;2022-07-05T06:03:31;0.80;;;0.60;;
28920;SDS011;16035;53.594;9.952;2022-07-05T06:05:31;2.80;;;0.80;;
28920;SDS011;16035;53.594;9.952;2022-07-05T06:07:42;1.93;;;0.90;;
28920;SDS011;16035;53.594;9.952;2022-07-05T06:09:49;2.22;;;0.80;;
28920;SDS011;16035;53.594;9.952;2022-07-05T06:11:50;3.50;;;0.80;;
28920;SDS011;16035;53.594;9.952;2022-07-05T06:13:50;2.37;;;1.00;;
28920;SDS011;16035;53.594;9.952;2022-07-05T06:15:50;1.63;;;0.87;;
28920;SDS011;16035;53.594;9.952;2022-07-05T06:17:51;4.20;;;1.20;;
28920;SDS011;16035;53.594;9.952;2022-07-05T06:19:51;3.90;;;0.73;;
28920;SDS011;16035;53.594;9.952;2022-07-05T06:21:51;2.70;;;1.30;;
28920;SDS011;16035;53.594;9.952;2022-07-05T06:23:52;4.13;;;2.10;;
28920;SDS011;16035;53.594;9.952;2022-07-05T06:25:52;2.37;;;1.53;;
28920;SDS011;16035;53.594;9.952;2022-07-05T06:27:54;2.73;;;1.27;;
28920;SDS011;16035;53.594;9.952;2022-07-05T06:30:00;2.85;;;1.10;;
28920;SDS011;16035;53.594;9.952;2022-07-05T06:32:01;1.37;;;0.87;;
28920;SDS011;16035;53.594;9.952;2022-07-05T06:34:01;8.97;;;2.20;;
28920;SDS011;16035;53.594;9.952;2022-07-05T06:36:01;5.73;;;1.50;;
28920;SDS011;16035;53.594;9.952;2022-07-05T06:38:03;2.93;;;0.80;;
28920;SDS011;16035;53.594;9.952;2022-07-05T06:40:04;6.72;;;0.88;;
28920;SDS011;16035;53.594;9.952;2022-07-05T06:42:05;1.27;;;0.82;;
28920;SDS011;16035;53.594;9.952;2022-07-05T06:44:06;2.40;;;0.70;;
28920;SDS011;16035;53.594;9.952;2022-07-05T06:46:06;1.07;;;0.97;;
28920;SDS011;16035;53.594;9.952;2022-07-05T06:48:07;1.23;;;1.00;;
28920;SDS011;16035;53.594;9.952;2022-07-05T06:50:09;4.00;;;1.00;;
28920;SDS011;16035;53.594;9.952;2022-07-05T06:52:13;3.55;;;0.88;;
28920;SDS011;16035;53.594;9.952;2022-07-05T06:54:13;2.97;;;1.10;;
28920;SDS011;16035;53.594;9.952;2022-07-05T06:56:13;3.10;;;0.90;;
28920;SDS011;16035;53.594;9.952;2022-07-05T06:58:14;3.87;;;0.73;;
28920;SDS011;16035;53.594;9.952;2022-07-05T07:00:14;2.77;;;0.70;;
28920;SDS011;16035;53.594;9.952;2022-07-05T07:02:15;1.05;;;0.57;;
28920;SDS011;16035;53.594;9.952;2022-07-05T07:04:16;1.92;;;1.40;;
28920;SDS011;16035;53.594;9.952;2022-07-05T07:06:16;1.17;;;0.77;;
28920;SDS011;16035;53.594;9.952;2022-07-05T07:08:17;1.45;;;0.40;;
28920;SDS011;16035;53.594;9.952;2022-07-05T07:10:36;1.45;;;0.88;;
28920;SDS011;16035;53.594;9.952;2022-07-05T07:12:36;5.30;;;2.57;;
28920;SDS011;16035;53.594;9.952;2022-07-05T07:14:37;5.20;;;1.40;;
28920;SDS011;16035;53.594;9.952;2022-07-05T07:16:37;0.50;;;0.50;;
28920;SDS011;16035;53.594;9.952;2022-07-05T07:18:37;2.07;;;0.80;;
28920;SDS011;16035;53.594;9.952;2022-07-05T07:20:38;0.97;;;0.57;;
28920;SDS011;16035;53.594;9.952;2022-07-05T07:22:38;3.87;;;1.10;;
28920;SDS011;16035;53.594;9.952;2022-07-05T07:24:38;1.80;;;0.83;;
28920;SDS011;16035;53.594;9.952;2022-07-05T07:26:39;1.73;;;1.17;;
28920;SDS011;16035;53.594;9.952;2022-07-05T07:28:58;5.57;;;0.70;;
28920;SDS011;16035;53.594;9.952;2022-07-05T07:30:58;1.57;;;0.33;;
28920;SDS011;16035;53.594;9.952;2022-07-05T07:32:59;4.43;;;0.70;;
28920;SDS011;16035;53.594;9.952;2022-07-05T07:34:59;1.97;;;0.63;;
28920;SDS011;16035;53.594;9.952;2022-07-05T07:36:59;2.90;;;0.50;;
28920;SDS011;16035;53.594;9.952;2022-07-05T07:39:00;4.50;;;0.67;;
28920;SDS011;16035;53.594;9.952;2022-07-05T07:41:00;1.57;;;1.20;;
28920;SDS011;16035;53.594;9.952;2022-07-05T07:43:01;0.77;;;0.60;;
28920;SDS011;16035;53.594;9.952;2022-07-05T07:45:02;3.23;;;0.80;;
28920;SDS011;16035;53.594;9.952;2022-07-05T07:47:03;1.50;;;0.52;;
28920;SDS011;16035;53.594;9.952;2022-07-05T07:49:04;2.37;;;0.70;;
28920;SDS011;16035;53.594;9.952;2022-07-05T07:51:05;1.20;;;0.73;;
28920;SDS011;16035;53.594;9.952;2022-07-05T07:53:05;2.27;;;0.70;;
28920;SDS011;16035;53.594;9.952;2022-07-05T07:55:06;5.53;;;0.67;;
28920;SDS011;16035;53.594;9.952;2022-07-05T07:57:06;3.03;;;0.75;;
28920;SDS011;16035;53.594;9.952;2022-07-05T07:59:07;3.07;;;0.80;;
28920;SDS011;16035;53.594;9.952;2022-07-05T08:01:07;1.33;;;0.70;;
28920;SDS011;16035;53.594;9.952;2022-07-05T08:03:11;2.97;;;0.65;;
28920;SDS011;16035;53.594;9.952;2022-07-05T08:05:11;1.70;;;0.60;;
28920;SDS011;16035;53.594;9.952;2022-07-05T08:07:12;3.13;;;1.00;;
28920;SDS011;16035;53.594;9.952;2022-07-05T08:09:12;2.83;;;1.30;;
28920;SDS011;16035;53.594;9.952;2022-07-05T08:11:13;0.98;;;0.47;;
28920;SDS011;16035;53.594;9.952;2022-07-05T08:13:15;2.42;;;0.50;;
28920;SDS011;16035;53.594;9.952;2022-07-05T08:15:15;2.20;;;0.50;;
28920;SDS011;16035;53.594;9.952;2022-07-05T08:17:15;1.13;;;0.50;;
28920;SDS011;16035;53.594;9.952;2022-07-05T08:19:16;2.90;;;0.47;;
28920;SDS011;16035;53.594;9.952;2022-07-05T08:21:36;3.17;;;0.50;;
28920;SDS011;16035;53.594;9.952;2022-07-05T08:23:38;5.72;;;3.08;;
28920;SDS011;16035;53.594;9.952;2022-07-05T08:25:38;2.40;;;1.70;;
28920;SDS011;16035;53.594;9.952;2022-07-05T08:27:38;0.90;;;0.60;;
28920;SDS011;16035;53.594;9.952;2022-07-05T08:29:39;0.87;;;0.40;;
28920;SDS011;16035;53.594;9.952;2022-07-05T08:31:40;0.43;;;0.30;;
28920;SDS011;16035;53.594;9.952;2022-07-05T08:33:41;1.42;;;0.50;;
28920;SDS011;16035;53.594;9.952;2022-07-05T08:35:41;0.90;;;0.20;;
28920;SDS011;16035;53.594;9.952;2022-07-05T08:37:42;1.87;;;0.33;;
28920;SDS011;16035;53.594;9.952;2022-07-05T08:39:42;0.27;;;0.13;;
28920;SDS011;16035;53.594;9.952;2022-07-05T08:41:43;0.40;;;0.28;;
28920;SDS011;16035;53.594;9.952;2022-07-05T08:43:51;2.08;;;0.40;;
28920;SDS011;16035;53.594;9.952;2022-07-05T08:45:52;0.63;;;0.40;;
28920;SDS011;16035;53.594;9.952;2022-07-05T08:47:54;0.77;;;0.40;;
28920;SDS011;16035;53.594;9.952;2022-07-05T08:49:58;1.95;;;0.40;;
28920;SDS011;16035;53.594;9.952;2022-07-05T08:54:04;1.00;;;0.25;;
28920;SDS011;16035;53.594;9.952;2022-07-05T08:56:06;1.23;;;0.55;;
28920;SDS011;16035;53.594;9.952;2022-07-05T08:58:07;1.00;;;0.28;;
28920;SDS011;16035;53.594;9.952;2022-07-05T09:00:08;0.63;;;0.30;;
28920;SDS011;16035;53.594;9.952;2022-07-05T09:02:10;2.92;;;0.30;;
28920;SDS011;16035;53.594;9.952;2022-07-05T09:04:13;1.25;;;0.20;;
28920;SDS011;16035;53.594;9.952;2022-07-05T09:06:23;0.43;;;0.30;;
28920;SDS011;16035;53.594;9.952;2022-07-05T09:08:25;1.27;;;0.20;;
28920;SDS011;16035;53.594;9.952;2022-07-05T09:10:29;1.40;;;0.30;;
28920;SDS011;16035;53.594;9.952;2022-07-05T09:12:30;4.60;;;0.40;;
28920;SDS011;16035;53.594;9.952;2022-07-05T09:14:30;1.40;;;0.50;;
28920;SDS011;16035;53.594;9.952;2022-07-05T09:16:31;0.83;;;0.30;;
28920;SDS011;16035;53.594;9.952;2022-07-05T09:18:39;0.63;;;0.45;;
28920;SDS011;16035;53.594;9.952;2022-07-05T09:20:45;0.88;;;0.30;;
28920;SDS011;16035;53.594;9.952;2022-07-05T09:22:47;1.55;;;0.30;;
28920;SDS011;16035;53.594;9.952;2022-07-05T09:24:47;1.83;;;0.57;;
28920;SDS011;16035;53.594;9.952;2022-07-05T09:26:48;0.47;;;0.30;;
28920;SDS011;16035;53.594;9.952;2022-07-05T09:28:55;0.53;;;0.40;;
28920;SDS011;16035;53.594;9.952;2022-07-05T09:30:56;1.88;;;0.30;;
28920;SDS011;16035;53.594;9.952;2022-07-05T09:35:19;3.40;;;0.50;;
28920;SDS011;16035;53.594;9.952;2022-07-05T09:37:20;0.55;;;0.30;;
28920;SDS011;16035;53.594;9.952;2022-07-05T09:41:29;2.92;;;0.45;;
28920;SDS011;16035;53.594;9.952;2022-07-05T09:43:30;1.50;;;0.33;;
28920;SDS011;16035;53.594;9.952;2022-07-05T09:45:30;0.57;;;0.20;;
28920;SDS011;16035;53.594;9.952;2022-07-05T09:47:31;0.40;;;0.20;;
28920;SDS011;16035;53.594;9.952;2022-07-05T09:49:31;0.73;;;0.30;;
28920;SDS011;16035;53.594;9.952;2022-07-05T09:51:46;3.17;;;0.40;;
28920;SDS011;16035;53.594;9.952;2022-07-05T09:53:48;0.35;;;0.30;;
28920;SDS011;16035;53.594;9.952;2022-07-05T09:56:02;0.40;;;0.25;;
28920;SDS011;16035;53.594;9.952;2022-07-05T09:58:03;1.08;;;0.30;;
28920;SDS011;16035;53.594;9.952;2022-07-05T10:00:05;1.05;;;0.40;;
28920;SDS011;16035;53.594;9.952;2022-07-05T10:02:08;0.28;;;0.20;;
28920;SDS011;16035;53.594;9.952;2022-07-05T10:04:09;2.17;;;0.43;;
28920;SDS011;16035;53.594;9.952;2022-07-05T10:06:09;0.40;;;0.40;;
28920;SDS011;16035;53.594;9.952;2022-07-05T10:08:10;0.50;;;0.30;;
28920;SDS011;16035;53.594;9.952;2022-07-05T10:10:17;0.40;;;0.40;;
28920;SDS011;16035;53.594;9.952;2022-07-05T10:12:19;0.88;;;0.30;;
28920;SDS011;16035;53.594;9.952;2022-07-05T10:14:20;2.03;;;1.50;;
28920;SDS011;16035;53.594;9.952;2022-07-05T10:16:21;0.47;;;0.30;;
28920;SDS011;16035;53.594;9.952;2022-07-05T10:18:22;2.17;;;0.35;;
28920;SDS011;16035;53.594;9.952;2022-07-05T10:22:34;1.55;;;0.20;;
28920;SDS011;16035;53.594;9.952;2022-07-05T10:24:35;0.88;;;0.30;;
28920;SDS011;16035;53.594;9.952;2022-07-05T10:26:37;2.25;;;0.38;;
28920;SDS011;16035;53.594;9.952;2022-07-05T10:28:46;0.13;;;0.13;;
28920;SDS011;16035;53.594;9.952;2022-07-05T10:30:49;2.23;;;0.23;;
28920;SDS011;16035;53.594;9.952;2022-07-05T10:32:50;0.88;;;0.35;;
28920;SDS011;16035;53.594;9.952;2022-07-05T10:36:51;0.43;;;0.30;;
28920;SDS011;16035;53.594;9.952;2022-07-05T10:38:52;0.30;;;0.20;;
28920;SDS011;16035;53.594;9.952;2022-07-05T10:40:54;2.90;;;0.30;;
28920;SDS011;16035;53.594;9.952;2022-07-05T10:43:01;2.78;;;0.30;;
28920;SDS011;16035;53.594;9.952;2022-07-05T10:45:18;1.17;;;0.30;;
28920;SDS011;16035;53.594;9.952;2022-07-05T10:47:29;2.08;;;0.38;;
28920;SDS011;16035;53.594;9.952;2022-07-05T10:49:29;4.15;;;0.50;;
28920;SDS011;16035;53.594;9.952;2022-07-05T10:51:34;1.17;;;1.03;;
28920;SDS011;16035;53.594;9.952;2022-07-05T10:55:55;1.00;;;0.27;;
28920;SDS011;16035;53.594;9.952;2022-07-05T10:58:18;0.57;;;0.28;;
28920;SDS011;16035;53.594;9.952;2022-07-05T11:00:20;1.07;;;0.30;;
28920;SDS011;16035;53.594;9.952;2022-07-05T11:02:22;1.00;;;0.17;;
28920;SDS011;16035;53.594;9.952;2022-07-05T11:04:24;0.30;;;0.20;;
28920;SDS011;16035;53.594;9.952;2022-07-05T11:06:28;2.00;;;0.30;;
28920;SDS011;16035;53.594;9.952;2022-07-05T11:08:29;1.77;;;0.60;;
28920;SDS011;16035;53.594;9.952;2022-07-05T11:10:30;1.42;;;0.40;;
28920;SDS011;16035;53.594;9.952;2022-07-05T11:12:35;0.30;;;0.10;;
28920;SDS011;16035;53.594;9.952;2022-07-05T11:14:39;0.70;;;0.20;;
28920;SDS011;16035;53.594;9.952;2022-07-05T11:16:44;1.10;;;0.28;;
28920;SDS011;16035;53.594;9.952;2022-07-05T11:18:45;0.57;;;0.17;;
28920;SDS011;16035;53.594;9.952;2022-07-05T11:20:45;1.03;;;0.30;;
28920;SDS011;16035;53.594;9.952;2022-07-05T11:23:02;0.10;;;0.10;;
28920;SDS011;16035;53.594;9.952;2022-07-05T11:25:04;2.83;;;0.60;;
28920;SDS011;16035;53.594;9.952;2022-07-05T11:27:09;2.70;;;0.32;;
28920;SDS011;16035;53.594;9.952;2022-07-05T11:31:49;0.45;;;0.30;;
28920;SDS011;16035;53.594;9.952;2022-07-05T11:34:14;0.20;;;0.20;;
28920;SDS011;16035;53.594;9.952;2022-07-05T11:36:24;1.60;;;0.28;;
28920;SDS011;16035;53.594;9.952;2022-07-05T11:38:29;0.20;;;0.20;;
28920;SDS011;16035;53.594;9.952;2022-07-05T11:40:31;1.70;;;0.13;;
28920;SDS011;16035;53.594;9.952;2022-07-05T11:42:37;0.45;;;0.20;;
28920;SDS011;16035;53.594;9.952;2022-07-05T11:44:51;0.45;;;0.17;;
28920;SDS011;16035;53.594;9.952;2022-07-05T11:46:53;2.05;;;0.20;;
28920;SDS011;16035;53.594;9.952;2022-07-05T11:48:54;0.20;;;0.10;;
28920;SDS011;16035;53.594;9.952;2022-07-05T11:50:56;1.35;;;0.30;;
28920;SDS011;16035;53.594;9.952;2022-07-05T11:52:57;5.50;;;0.25;;
28920;SDS011;16035;53.594;9.952;2022-07-05T11:54:59;2.95;;;0.45;;
28920;SDS011;16035;53.594;9.952;2022-07-05T11:57:01;1.58;;;0.22;;
28920;SDS011;16035;53.594;9.952;2022-07-05T11:59:15;1.27;;;0.43;;
28920;SDS011;16035;53.594;9.952;2022-07-05T12:01:20;2.00;;;0.30;;
28920;SDS011;16035;53.594;9.952;2022-07-05T12:03:20;0.77;;;0.47;;
28920;SDS011;16035;53.594;9.952;2022-07-05T12:05:21;0.80;;;0.23;;
28920;SDS011;16035;53.594;9.952;2022-07-05T12:07:32;0.30;;;0.17;;
28920;SDS011;16035;53.594;9.952;2022-07-05T12:09:34;2.20;;;0.57;;
28920;SDS011;16035;53.594;9.952;2022-07-05T12:11:54;0.55;;;0.20;;
28920;SDS011;16035;53.594;9.952;2022-07-05T12:14:21;1.08;;;0.28;;
28920;SDS011;16035;53.594;9.952;2022-07-05T12:16:22;0.85;;;0.20;;
28920;SDS011;16035;53.594;9.952;2022-07-05T12:18:23;1.08;;;0.25;;
28920;SDS011;16035;53.594;9.952;2022-07-05T12:20:24;0.57;;;0.20;;
28920;SDS011;16035;53.594;9.952;2022-07-05T12:22:32;0.30;;;0.25;;
28920;SDS011;16035;53.594;9.952;2022-07-05T12:24:37;0.63;;;0.47;;
28920;SDS011;16035;53.594;9.952;2022-07-05T12:28:39;0.83;;;0.50;;
28920;SDS011;16035;53.594;9.952;2022-07-05T12:30:41;1.08;;;0.30;;
28920;SDS011;16035;53.594;9.952;2022-07-05T12:35:00;2.42;;;0.40;;